sensor_id;sensor_type;location;lat;lon;timestamp;temperature;humidity
3705;DHT22;1868;48.918;9.438;2024-02-15T00:02:03;12.10;97.40
3705;DHT22;1868;48.918;9.438;2024-02-15T00:04:32;12.10;97.40
3705;DHT22;1868;48.918;9.438;2024-02-15T00:07:01;12.10;97.40
3705;DHT22;1868;48.918;9.438;2024-02-15T00:09:32;12.10;97.40
3705;DHT22;1868;48.918;9.438;2024-02-15T00:12:01;12.00;97.40
3705;DHT22;1868;48.918;9.438;2024-02-15T00:14:34;12.00;97.40
3705;DHT22;1868;48.918;9.438;2024-02-15T00:17:05;12.00;97.40
3705;DHT22;1868;48.918;9.438;2024-02-15T00:19:34;12.00;97.40
3705;DHT22;1868;48.918;9.438;2024-02-15T00:22:03;12.00;97.40
3705;DHT22;1868;48.918;9.438;2024-02-15T00:24:33;12.00;97.40
3705;DHT22;1868;48.918;9.438;2024-02-15T00:27:03;12.00;97.40
3705;DHT22;1868;48.918;9.438;2024-02-15T00:29:34;11.90;97.40
3705;DHT22;1868;48.918;9.438;2024-02-15T00:32:03;11.90;97.40
3705;DHT22;1868;48.918;9.438;2024-02-15T00:34:33;11.90;97.40
3705;DHT22;1868;48.918;9.438;2024-02-15T00:37:04;11.90;97.40
3705;DHT22;1868;48.918;9.438;2024-02-15T00:39:34;11.80;97.40
3705;DHT22;1868;48.918;9.438;2024-02-15T00:42:03;11.80;97.40
3705;DHT22;1868;48.918;9.438;2024-02-15T00:44:34;11.80;97.40
3705;DHT22;1868;48.918;9.438;2024-02-15T00:47:05;11.70;97.40
3705;DHT22;1868;48.918;9.438;2024-02-15T00:49:35;11.60;97.40
3705;DHT22;1868;48.918;9.438;2024-02-15T00:52:05;11.60;97.40
3705;DHT22;1868;48.918;9.438;2024-02-15T00:54:35;11.50;97.40
3705;DHT22;1868;48.918;9.438;2024-02-15T00:57:04;11.50;97.40
3705;DHT22;1868;48.918;9.438;2024-02-15T00:59:35;11.40;97.40
3705;DHT22;1868;48.918;9.438;2024-02-15T01:02:04;11.30;97.40
3705;DHT22;1868;48.918;9.438;2024-02-15T01:04:37;11.30;97.40
3705;DHT22;1868;48.918;9.438;2024-02-15T01:07:05;11.20;97.40
3705;DHT22;1868;48.918;9.438;2024-02-15T01:09:35;11.10;97.40
3705;DHT22;1868;48.918;9.438;2024-02-15T01:12:04;11.10;97.40
3705;DHT22;1868;48.918;9.438;2024-02-15T01:14:37;11.00;97.40
3705;DHT22;1868;48.918;9.438;2024-02-15T01:17:08;11.00;97.40
3705;DHT22;1868;48.918;9.438;2024-02-15T01:19:36;10.90;97.40
3705;DHT22;1868;48.918;9.438;2024-02-15T01:22:05;10.90;97.40
3705;DHT22;1868;48.918;9.438;2024-02-15T01:24:34;10.90;97.40
3705;DHT22;1868;48.918;9.438;2024-02-15T01:27:04;10.90;97.40
3705;DHT22;1868;48.918;9.438;2024-02-15T01:29:36;10.90;97.40
3705;DHT22;1868;48.918;9.438;2024-02-15T01:32:06;10.80;97.40
3705;DHT22;1868;48.918;9.438;2024-02-15T01:34:35;10.80;97.40
3705;DHT22;1868;48.918;9.438;2024-02-15T01:37:04;10.80;97.40
3705;DHT22;1868;48.918;9.438;2024-02-15T01:39:34;10.70;97.40
3705;DHT22;1868;48.918;9.438;2024-02-15T01:42:03;10.70;97.40
3705;DHT22;1868;48.918;9.438;2024-02-15T01:44:32;10.60;97.40
3705;DHT22;1868;48.918;9.438;2024-02-15T01:47:02;10.60;97.40
3705;DHT22;1868;48.918;9.438;2024-02-15T01:49:32;10.50;97.40
3705;DHT22;1868;48.918;9.438;2024-02-15T01:52:03;10.50;97.40
3705;DHT22;1868;48.918;9.438;2024-02-15T01:54:34;10.40;97.40
3705;DHT22;1868;48.918;9.438;2024-02-15T01:57:07;10.30;97.40
3705;DHT22;1868;48.918;9.438;2024-02-15T01:59:36;10.30;97.40
3705;DHT22;1868;48.918;9.438;2024-02-15T02:02:09;10.20;97.40
3705;DHT22;1868;48.918;9.438;2024-02-15T02:04:41;10.10;97.40
3705;DHT22;1868;48.918;9.438;2024-02-15T02:07:10;10.00;97.40
3705;DHT22;1868;48.918;9.438;2024-02-15T02:09:41;9.90;97.40
3705;DHT22;1868;48.918;9.438;2024-02-15T02:12:12;9.90;97.40
3705;DHT22;1868;48.918;9.438;2024-02-15T02:14:44;9.80;97.40
3705;DHT22;1868;48.918;9.438;2024-02-15T02:17:14;9.80;97.40
3705;DHT22;1868;48.918;9.438;2024-02-15T02:19:43;9.70;97.40
3705;DHT22;1868;48.918;9.438;2024-02-15T02:22:14;9.60;97.40
3705;DHT22;1868;48.918;9.438;2024-02-15T02:24:59;9.60;97.40
3705;DHT22;1868;48.918;9.438;2024-02-15T02:27:32;9.50;97.40
3705;DHT22;1868;48.918;9.438;2024-02-15T02:30:03;9.40;97.40
3705;DHT22;1868;48.918;9.438;2024-02-15T02:32:37;9.40;97.40
3705;DHT22;1868;48.918;9.438;2024-02-15T02:35:14;9.30;97.40
3705;DHT22;1868;48.918;9.438;2024-02-15T02:37:43;9.30;97.40
3705;DHT22;1868;48.918;9.438;2024-02-15T02:40:13;9.20;97.40
3705;DHT22;1868;48.918;9.438;2024-02-15T02:42:49;9.10;97.40
3705;DHT22;1868;48.918;9.438;2024-02-15T02:45:19;9.10;97.40
3705;DHT22;1868;48.918;9.438;2024-02-15T02:47:50;9.00;97.40
3705;DHT22;1868;48.918;9.438;2024-02-15T02:50:21;9.00;97.40
3705;DHT22;1868;48.918;9.438;2024-02-15T02:52:51;8.90;97.40
3705;DHT22;1868;48.918;9.438;2024-02-15T02:55:22;8.90;97.40
3705;DHT22;1868;48.918;9.438;2024-02-15T02:57:51;8.80;97.40
3705;DHT22;1868;48.918;9.438;2024-02-15T03:00:20;8.80;97.40
3705;DHT22;1868;48.918;9.438;2024-02-15T03:02:50;8.70;97.40
3705;DHT22;1868;48.918;9.438;2024-02-15T03:05:24;8.70;97.40
3705;DHT22;1868;48.918;9.438;2024-02-15T03:07:55;8.70;97.40
3705;DHT22;1868;48.918;9.438;2024-02-15T03:10:25;8.60;97.40
3705;DHT22;1868;48.918;9.438;2024-02-15T03:12:55;8.60;97.40
3705;DHT22;1868;48.918;9.438;2024-02-15T03:15:25;8.60;97.40
3705;DHT22;1868;48.918;9.438;2024-02-15T03:17:54;8.60;97.40
3705;DHT22;1868;48.918;9.438;2024-02-15T03:20:27;8.60;97.40
3705;DHT22;1868;48.918;9.438;2024-02-15T03:22:58;8.60;97.40
3705;DHT22;1868;48.918;9.438;2024-02-15T03:25:29;8.50;97.40
3705;DHT22;1868;48.918;9.438;2024-02-15T03:27:59;8.50;97.40
3705;DHT22;1868;48.918;9.438;2024-02-15T03:30:32;8.50;97.40
3705;DHT22;1868;48.918;9.438;2024-02-15T03:33:03;8.40;97.40
3705;DHT22;1868;48.918;9.438;2024-02-15T03:35:34;8.40;97.40
3705;DHT22;1868;48.918;9.438;2024-02-15T03:38:05;8.30;97.40
3705;DHT22;1868;48.918;9.438;2024-02-15T03:40:36;8.30;97.40
3705;DHT22;1868;48.918;9.438;2024-02-15T03:43:08;8.30;97.40
3705;DHT22;1868;48.918;9.438;2024-02-15T03:45:37;8.30;97.40
3705;DHT22;1868;48.918;9.438;2024-02-15T03:48:07;8.20;97.40
3705;DHT22;1868;48.918;9.438;2024-02-15T03:50:37;8.20;97.40
3705;DHT22;1868;48.918;9.438;2024-02-15T03:53:08;8.20;97.40
3705;DHT22;1868;48.918;9.438;2024-02-15T03:55:39;8.20;97.40
3705;DHT22;1868;48.918;9.438;2024-02-15T03:58:08;8.20;97.40
3705;DHT22;1868;48.918;9.438;2024-02-15T04:00:37;8.30;97.40
3705;DHT22;1868;48.918;9.438;2024-02-15T04:03:08;8.30;97.40
3705;DHT22;1868;48.918;9.438;2024-02-15T04:05:38;8.30;97.40
3705;DHT22;1868;48.918;9.438;2024-02-15T04:08:08;8.40;97.40
3705;DHT22;1868;48.918;9.438;2024-02-15T04:10:41;8.40;97.40
3705;DHT22;1868;48.918;9.438;2024-02-15T04:13:10;8.50;97.40
3705;DHT22;1868;48.918;9.438;2024-02-15T04:15:39;8.50;97.40
3705;DHT22;1868;48.918;9.438;2024-02-15T04:18:09;8.50;97.40
3705;DHT22;1868;48.918;9.438;2024-02-15T04:20:40;8.50;97.40
3705;DHT22;1868;48.918;9.438;2024-02-15T04:23:12;8.60;97.40
3705;DHT22;1868;48.918;9.438;2024-02-15T04:25:42;8.60;97.40
3705;DHT22;1868;48.918;9.438;2024-02-15T04:28:18;8.60;97.40
3705;DHT22;1868;48.918;9.438;2024-02-15T04:30:47;8.70;97.40
3705;DHT22;1868;48.918;9.438;2024-02-15T04:33:21;8.70;97.40
3705;DHT22;1868;48.918;9.438;2024-02-15T04:35:50;8.70;97.40
3705;DHT22;1868;48.918;9.438;2024-02-15T04:38:18;8.80;97.40
3705;DHT22;1868;48.918;9.438;2024-02-15T04:40:49;8.80;97.40
3705;DHT22;1868;48.918;9.438;2024-02-15T04:43:18;8.80;97.40
3705;DHT22;1868;48.918;9.438;2024-02-15T04:45:49;8.80;97.40
3705;DHT22;1868;48.918;9.438;2024-02-15T04:48:21;8.80;97.40
3705;DHT22;1868;48.918;9.438;2024-02-15T04:50:52;8.90;97.40
3705;DHT22;1868;48.918;9.438;2024-02-15T04:53:21;8.90;97.40
3705;DHT22;1868;48.918;9.438;2024-02-15T04:55:52;9.00;97.40
3705;DHT22;1868;48.918;9.438;2024-02-15T04:58:22;9.00;97.40
3705;DHT22;1868;48.918;9.438;2024-02-15T05:00:52;9.00;97.40
3705;DHT22;1868;48.918;9.438;2024-02-15T05:03:26;9.00;97.40
3705;DHT22;1868;48.918;9.438;2024-02-15T05:05:56;9.10;97.40
3705;DHT22;1868;48.918;9.438;2024-02-15T05:08:24;9.10;97.40
3705;DHT22;1868;48.918;9.438;2024-02-15T05:10:55;9.10;97.40
3705;DHT22;1868;48.918;9.438;2024-02-15T05:13:24;9.20;97.40
3705;DHT22;1868;48.918;9.438;2024-02-15T05:15:53;9.20;97.40
3705;DHT22;1868;48.918;9.438;2024-02-15T05:18:23;9.30;97.40
3705;DHT22;1868;48.918;9.438;2024-02-15T05:20:52;9.30;97.40
3705;DHT22;1868;48.918;9.438;2024-02-15T05:23:21;9.30;97.40
3705;DHT22;1868;48.918;9.438;2024-02-15T05:25:50;9.30;97.40
3705;DHT22;1868;48.918;9.438;2024-02-15T05:28:23;9.40;97.40
3705;DHT22;1868;48.918;9.438;2024-02-15T05:31:11;9.40;97.40
3705;DHT22;1868;48.918;9.438;2024-02-15T05:33:41;9.40;97.40
3705;DHT22;1868;48.918;9.438;2024-02-15T05:36:11;9.40;97.40
3705;DHT22;1868;48.918;9.438;2024-02-15T05:38:40;9.40;97.40
3705;DHT22;1868;48.918;9.438;2024-02-15T05:41:13;9.40;97.40
3705;DHT22;1868;48.918;9.438;2024-02-15T05:43:44;9.40;97.40
3705;DHT22;1868;48.918;9.438;2024-02-15T05:46:15;9.50;97.40
3705;DHT22;1868;48.918;9.438;2024-02-15T05:48:44;9.50;97.40
3705;DHT22;1868;48.918;9.438;2024-02-15T05:51:16;9.50;97.40
3705;DHT22;1868;48.918;9.438;2024-02-15T05:53:50;9.50;97.40
3705;DHT22;1868;48.918;9.438;2024-02-15T05:56:20;9.50;97.40
3705;DHT22;1868;48.918;9.438;2024-02-15T05:58:52;9.50;97.40
3705;DHT22;1868;48.918;9.438;2024-02-15T06:01:24;9.50;97.40
3705;DHT22;1868;48.918;9.438;2024-02-15T06:03:54;9.50;97.40
3705;DHT22;1868;48.918;9.438;2024-02-15T06:06:23;9.60;97.40
3705;DHT22;1868;48.918;9.438;2024-02-15T06:08:56;9.60;97.40
3705;DHT22;1868;48.918;9.438;2024-02-15T06:11:27;9.60;97.40
3705;DHT22;1868;48.918;9.438;2024-02-15T06:13:58;9.60;97.40
3705;DHT22;1868;48.918;9.438;2024-02-15T06:16:27;9.60;97.40
3705;DHT22;1868;48.918;9.438;2024-02-15T06:18:58;9.60;97.40
3705;DHT22;1868;48.918;9.438;2024-02-15T06:21:31;9.70;97.40
3705;DHT22;1868;48.918;9.438;2024-02-15T06:24:01;9.70;97.40
3705;DHT22;1868;48.918;9.438;2024-02-15T06:26:30;9.70;97.40
3705;DHT22;1868;48.918;9.438;2024-02-15T06:29:02;9.70;97.40
3705;DHT22;1868;48.918;9.438;2024-02-15T06:31:48;9.70;97.40
3705;DHT22;1868;48.918;9.438;2024-02-15T06:34:35;9.80;97.40
3705;DHT22;1868;48.918;9.438;2024-02-15T06:37:36;9.80;97.40
3705;DHT22;1868;48.918;9.438;2024-02-15T06:40:22;9.80;97.40
3705;DHT22;1868;48.918;9.438;2024-02-15T06:42:51;9.80;97.40
3705;DHT22;1868;48.918;9.438;2024-02-15T06:45:21;9.80;97.40
3705;DHT22;1868;48.918;9.438;2024-02-15T06:47:51;9.80;97.40
3705;DHT22;1868;48.918;9.438;2024-02-15T06:50:20;9.80;97.40
3705;DHT22;1868;48.918;9.438;2024-02-15T06:52:49;9.80;97.40
3705;DHT22;1868;48.918;9.438;2024-02-15T06:55:19;9.80;97.40
3705;DHT22;1868;48.918;9.438;2024-02-15T06:57:49;9.80;97.40
3705;DHT22;1868;48.918;9.438;2024-02-15T07:00:17;9.90;97.40
3705;DHT22;1868;48.918;9.438;2024-02-15T07:02:48;9.90;97.40
3705;DHT22;1868;48.918;9.438;2024-02-15T07:05:18;9.90;97.40
3705;DHT22;1868;48.918;9.438;2024-02-15T07:07:46;10.00;97.40
3705;DHT22;1868;48.918;9.438;2024-02-15T07:10:15;10.00;97.40
3705;DHT22;1868;48.918;9.438;2024-02-15T07:12:44;10.00;97.40
3705;DHT22;1868;48.918;9.438;2024-02-15T07:15:14;10.10;97.40
3705;DHT22;1868;48.918;9.438;2024-02-15T07:17:48;10.10;97.40
3705;DHT22;1868;48.918;9.438;2024-02-15T07:20:22;10.10;97.40
3705;DHT22;1868;48.918;9.438;2024-02-15T07:22:52;10.20;97.40
3705;DHT22;1868;48.918;9.438;2024-02-15T07:25:20;10.20;97.40
3705;DHT22;1868;48.918;9.438;2024-02-15T07:27:49;10.30;97.40
3705;DHT22;1868;48.918;9.438;2024-02-15T07:30:20;10.40;97.40
3705;DHT22;1868;48.918;9.438;2024-02-15T07:32:54;10.50;97.40
3705;DHT22;1868;48.918;9.438;2024-02-15T07:35:23;10.60;97.40
3705;DHT22;1868;48.918;9.438;2024-02-15T07:37:53;10.60;97.40
3705;DHT22;1868;48.918;9.438;2024-02-15T07:40:25;10.70;97.40
3705;DHT22;1868;48.918;9.438;2024-02-15T07:42:56;10.80;97.40
3705;DHT22;1868;48.918;9.438;2024-02-15T07:45:27;10.90;97.40
3705;DHT22;1868;48.918;9.438;2024-02-15T07:48:01;11.00;97.40
3705;DHT22;1868;48.918;9.438;2024-02-15T07:50:31;11.10;97.40
3705;DHT22;1868;48.918;9.438;2024-02-15T07:53:01;11.20;97.40
3705;DHT22;1868;48.918;9.438;2024-02-15T07:55:29;11.30;97.40
3705;DHT22;1868;48.918;9.438;2024-02-15T07:57:59;11.40;97.40
3705;DHT22;1868;48.918;9.438;2024-02-15T08:00:31;11.50;97.40
3705;DHT22;1868;48.918;9.438;2024-02-15T08:03:02;11.80;97.40
3705;DHT22;1868;48.918;9.438;2024-02-15T08:05:32;12.70;97.40
3705;DHT22;1868;48.918;9.438;2024-02-15T08:08:04;14.00;97.40
3705;DHT22;1868;48.918;9.438;2024-02-15T08:10:33;15.20;97.40
3705;DHT22;1868;48.918;9.438;2024-02-15T08:13:02;16.10;97.40
3705;DHT22;1868;48.918;9.438;2024-02-15T08:15:31;16.70;97.40
3705;DHT22;1868;48.918;9.438;2024-02-15T08:18:02;17.00;97.40
3705;DHT22;1868;48.918;9.438;2024-02-15T08:20:36;17.20;97.40
3705;DHT22;1868;48.918;9.438;2024-02-15T08:23:06;17.40;97.40
3705;DHT22;1868;48.918;9.438;2024-02-15T08:25:38;17.70;97.40
3705;DHT22;1868;48.918;9.438;2024-02-15T08:28:08;18.00;97.40
3705;DHT22;1868;48.918;9.438;2024-02-15T08:30:37;18.40;97.40
3705;DHT22;1868;48.918;9.438;2024-02-15T08:33:09;18.80;97.40
3705;DHT22;1868;48.918;9.438;2024-02-15T08:35:39;19.20;97.40
3705;DHT22;1868;48.918;9.438;2024-02-15T08:38:08;19.50;97.40
3705;DHT22;1868;48.918;9.438;2024-02-15T08:40:37;19.30;97.40
3705;DHT22;1868;48.918;9.438;2024-02-15T08:43:07;19.00;97.40
3705;DHT22;1868;48.918;9.438;2024-02-15T08:45:36;18.90;97.40
3705;DHT22;1868;48.918;9.438;2024-02-15T08:48:05;18.20;97.40
3705;DHT22;1868;48.918;9.438;2024-02-15T08:50:36;18.00;97.40
3705;DHT22;1868;48.918;9.438;2024-02-15T08:53:04;17.80;97.40
3705;DHT22;1868;48.918;9.438;2024-02-15T08:55:34;17.90;97.40
3705;DHT22;1868;48.918;9.438;2024-02-15T08:58:05;18.00;97.40
3705;DHT22;1868;48.918;9.438;2024-02-15T09:00:36;18.30;97.40
3705;DHT22;1868;48.918;9.438;2024-02-15T09:03:11;18.50;97.40
3705;DHT22;1868;48.918;9.438;2024-02-15T09:05:41;18.80;97.40
3705;DHT22;1868;48.918;9.438;2024-02-15T09:08:10;19.00;97.40
3705;DHT22;1868;48.918;9.438;2024-02-15T09:10:39;19.40;97.40
3705;DHT22;1868;48.918;9.438;2024-02-15T09:13:08;19.70;97.40
3705;DHT22;1868;48.918;9.438;2024-02-15T09:15:36;20.00;97.40
3705;DHT22;1868;48.918;9.438;2024-02-15T09:18:06;20.40;97.40
3705;DHT22;1868;48.918;9.438;2024-02-15T09:20:37;20.90;97.40
3705;DHT22;1868;48.918;9.438;2024-02-15T09:23:13;21.50;97.40
3705;DHT22;1868;48.918;9.438;2024-02-15T09:25:41;22.00;97.40
3705;DHT22;1868;48.918;9.438;2024-02-15T09:28:13;22.40;97.40
3705;DHT22;1868;48.918;9.438;2024-02-15T09:30:42;23.00;97.40
3705;DHT22;1868;48.918;9.438;2024-02-15T09:33:14;23.70;96.70
3705;DHT22;1868;48.918;9.438;2024-02-15T09:35:44;24.30;94.10
3705;DHT22;1868;48.918;9.438;2024-02-15T09:38:15;25.00;92.80
3705;DHT22;1868;48.918;9.438;2024-02-15T09:40:48;25.70;91.70
3705;DHT22;1868;48.918;9.438;2024-02-15T09:43:17;26.40;90.90
3705;DHT22;1868;48.918;9.438;2024-02-15T09:45:47;27.10;88.60
3705;DHT22;1868;48.918;9.438;2024-02-15T09:48:17;27.60;83.60
3705;DHT22;1868;48.918;9.438;2024-02-15T09:50:52;27.80;81.20
3705;DHT22;1868;48.918;9.438;2024-02-15T09:53:24;28.50;79.30
3705;DHT22;1868;48.918;9.438;2024-02-15T09:55:54;28.80;78.60
3705;DHT22;1868;48.918;9.438;2024-02-15T09:58:23;29.30;77.10
3705;DHT22;1868;48.918;9.438;2024-02-15T10:00:52;29.40;76.10
3705;DHT22;1868;48.918;9.438;2024-02-15T10:03:22;29.80;72.20
3705;DHT22;1868;48.918;9.438;2024-02-15T10:05:55;30.10;69.40
3705;DHT22;1868;48.918;9.438;2024-02-15T10:08:26;30.20;69.10
3705;DHT22;1868;48.918;9.438;2024-02-15T10:11:07;29.80;64.60
3705;DHT22;1868;48.918;9.438;2024-02-15T10:13:38;29.70;67.00
3705;DHT22;1868;48.918;9.438;2024-02-15T10:16:16;29.50;64.60
3705;DHT22;1868;48.918;9.438;2024-02-15T10:18:46;29.80;64.60
3705;DHT22;1868;48.918;9.438;2024-02-15T10:21:24;29.20;63.10
3705;DHT22;1868;48.918;9.438;2024-02-15T10:24:07;28.90;63.70
3705;DHT22;1868;48.918;9.438;2024-02-15T10:26:36;29.10;64.60
3705;DHT22;1868;48.918;9.438;2024-02-15T10:29:06;29.30;65.00
3705;DHT22;1868;48.918;9.438;2024-02-15T10:31:37;29.70;62.90
3705;DHT22;1868;48.918;9.438;2024-02-15T10:34:08;29.40;60.30
3705;DHT22;1868;48.918;9.438;2024-02-15T10:36:39;29.30;63.10
3705;DHT22;1868;48.918;9.438;2024-02-15T10:39:14;29.60;63.50
3705;DHT22;1868;48.918;9.438;2024-02-15T10:41:50;29.30;60.50
3705;DHT22;1868;48.918;9.438;2024-02-15T10:44:22;29.40;60.90
3705;DHT22;1868;48.918;9.438;2024-02-15T10:46:54;29.30;58.40
3705;DHT22;1868;48.918;9.438;2024-02-15T10:49:23;29.30;58.90
3705;DHT22;1868;48.918;9.438;2024-02-15T10:51:56;29.40;57.20
3705;DHT22;1868;48.918;9.438;2024-02-15T10:54:47;29.50;59.60
3705;DHT22;1868;48.918;9.438;2024-02-15T10:57:21;29.30;57.80
3705;DHT22;1868;48.918;9.438;2024-02-15T10:59:55;28.50;57.80
3705;DHT22;1868;48.918;9.438;2024-02-15T11:02:34;27.90;58.40
3705;DHT22;1868;48.918;9.438;2024-02-15T11:05:09;28.00;60.90
3705;DHT22;1868;48.918;9.438;2024-02-15T11:07:39;28.10;62.20
3705;DHT22;1868;48.918;9.438;2024-02-15T11:10:10;28.70;62.70
3705;DHT22;1868;48.918;9.438;2024-02-15T11:12:44;29.00;60.30
3705;DHT22;1868;48.918;9.438;2024-02-15T11:15:40;29.50;60.70
3705;DHT22;1868;48.918;9.438;2024-02-15T11:18:12;29.80;61.40
3705;DHT22;1868;48.918;9.438;2024-02-15T11:20:49;29.70;58.40
3705;DHT22;1868;48.918;9.438;2024-02-15T11:23:27;29.80;58.40
3705;DHT22;1868;48.918;9.438;2024-02-15T11:26:08;29.80;57.70
3705;DHT22;1868;48.918;9.438;2024-02-15T11:28:45;29.60;57.80
3705;DHT22;1868;48.918;9.438;2024-02-15T11:34:43;29.70;58.30
3705;DHT22;1868;48.918;9.438;2024-02-15T11:40:59;29.60;57.70
3705;DHT22;1868;48.918;9.438;2024-02-15T11:43:49;29.80;57.40
3705;DHT22;1868;48.918;9.438;2024-02-15T11:46:26;30.20;56.40
3705;DHT22;1868;48.918;9.438;2024-02-15T11:48:58;29.90;55.10
3705;DHT22;1868;48.918;9.438;2024-02-15T11:51:29;29.50;55.70
3705;DHT22;1868;48.918;9.438;2024-02-15T11:54:07;29.40;56.30
3705;DHT22;1868;48.918;9.438;2024-02-15T11:56:55;29.50;58.30
3705;DHT22;1868;48.918;9.438;2024-02-15T11:59:44;29.40;56.10
3705;DHT22;1868;48.918;9.438;2024-02-15T12:02:32;29.20;55.70
3705;DHT22;1868;48.918;9.438;2024-02-15T12:05:19;28.90;57.40
3705;DHT22;1868;48.918;9.438;2024-02-15T12:08:06;28.50;58.30
3705;DHT22;1868;48.918;9.438;2024-02-15T12:10:59;28.60;58.60
3705;DHT22;1868;48.918;9.438;2024-02-15T12:13:50;28.40;59.00
3705;DHT22;1868;48.918;9.438;2024-02-15T12:16:38;27.70;58.40
3705;DHT22;1868;48.918;9.438;2024-02-15T12:19:24;26.40;61.40
3705;DHT22;1868;48.918;9.438;2024-02-15T12:21:55;26.50;62.50
3705;DHT22;1868;48.918;9.438;2024-02-15T12:24:25;26.90;63.10
3705;DHT22;1868;48.918;9.438;2024-02-15T12:27:01;27.00;62.90
3705;DHT22;1868;48.918;9.438;2024-02-15T12:29:30;27.00;62.20
3705;DHT22;1868;48.918;9.438;2024-02-15T12:32:01;26.80;63.30
3705;DHT22;1868;48.918;9.438;2024-02-15T12:34:32;26.80;64.00
3705;DHT22;1868;48.918;9.438;2024-02-15T12:37:07;27.00;65.10
3705;DHT22;1868;48.918;9.438;2024-02-15T12:39:37;27.30;64.20
3705;DHT22;1868;48.918;9.438;2024-02-15T12:42:07;27.60;62.30
3705;DHT22;1868;48.918;9.438;2024-02-15T12:44:37;27.60;62.30
3705;DHT22;1868;48.918;9.438;2024-02-15T12:47:21;27.50;61.80
3705;DHT22;1868;48.918;9.438;2024-02-15T12:49:52;27.30;62.30
3705;DHT22;1868;48.918;9.438;2024-02-15T12:52:36;27.10;63.50
3705;DHT22;1868;48.918;9.438;2024-02-15T12:55:09;26.60;64.80
3705;DHT22;1868;48.918;9.438;2024-02-15T12:57:39;26.40;66.80
3705;DHT22;1868;48.918;9.438;2024-02-15T13:00:13;26.10;67.40
3705;DHT22;1868;48.918;9.438;2024-02-15T13:02:48;25.70;67.90
3705;DHT22;1868;48.918;9.438;2024-02-15T13:05:19;25.20;70.20
3705;DHT22;1868;48.918;9.438;2024-02-15T13:07:49;24.80;72.60
3705;DHT22;1868;48.918;9.438;2024-02-15T13:10:18;24.20;72.60
3705;DHT22;1868;48.918;9.438;2024-02-15T13:12:50;23.70;74.50
3705;DHT22;1868;48.918;9.438;2024-02-15T13:15:20;23.50;76.30
3705;DHT22;1868;48.918;9.438;2024-02-15T13:17:55;23.40;77.10
3705;DHT22;1868;48.918;9.438;2024-02-15T13:20:27;23.30;77.60
3705;DHT22;1868;48.918;9.438;2024-02-15T13:23:03;23.10;77.40
3705;DHT22;1868;48.918;9.438;2024-02-15T13:25:38;22.90;78.70
3705;DHT22;1868;48.918;9.438;2024-02-15T13:28:11;22.80;80.20
3705;DHT22;1868;48.918;9.438;2024-02-15T13:30:42;22.70;80.00
3705;DHT22;1868;48.918;9.438;2024-02-15T13:33:14;22.70;79.90
3705;DHT22;1868;48.918;9.438;2024-02-15T13:35:44;22.50;81.00
3705;DHT22;1868;48.918;9.438;2024-02-15T13:38:15;22.30;81.90
3705;DHT22;1868;48.918;9.438;2024-02-15T13:40:52;22.20;81.70
3705;DHT22;1868;48.918;9.438;2024-02-15T13:43:23;22.10;81.00
3705;DHT22;1868;48.918;9.438;2024-02-15T13:45:54;22.00;82.80
3705;DHT22;1868;48.918;9.438;2024-02-15T13:48:29;21.90;84.10
3705;DHT22;1868;48.918;9.438;2024-02-15T13:51:02;21.80;85.30
3705;DHT22;1868;48.918;9.438;2024-02-15T13:53:31;21.60;85.60
3705;DHT22;1868;48.918;9.438;2024-02-15T13:56:02;21.30;86.60
3705;DHT22;1868;48.918;9.438;2024-02-15T13:58:33;21.10;87.30
3705;DHT22;1868;48.918;9.438;2024-02-15T14:01:02;21.10;86.80
3705;DHT22;1868;48.918;9.438;2024-02-15T14:03:33;21.00;88.20
3705;DHT22;1868;48.918;9.438;2024-02-15T14:06:02;20.90;90.10
3705;DHT22;1868;48.918;9.438;2024-02-15T14:08:34;20.80;90.60
3705;DHT22;1868;48.918;9.438;2024-02-15T14:11:05;20.80;90.30
3705;DHT22;1868;48.918;9.438;2024-02-15T14:13:33;20.60;90.90
3705;DHT22;1868;48.918;9.438;2024-02-15T14:16:02;20.50;91.60
3705;DHT22;1868;48.918;9.438;2024-02-15T14:18:37;20.40;92.40
3705;DHT22;1868;48.918;9.438;2024-02-15T14:21:06;20.40;92.30
3705;DHT22;1868;48.918;9.438;2024-02-15T14:23:37;20.40;91.50
3705;DHT22;1868;48.918;9.438;2024-02-15T14:26:09;20.30;91.40
3705;DHT22;1868;48.918;9.438;2024-02-15T14:28:38;20.30;92.20
3705;DHT22;1868;48.918;9.438;2024-02-15T14:31:12;20.20;91.90
3705;DHT22;1868;48.918;9.438;2024-02-15T14:33:59;20.10;92.30
3705;DHT22;1868;48.918;9.438;2024-02-15T14:36:29;20.10;92.10
3705;DHT22;1868;48.918;9.438;2024-02-15T14:38:58;20.00;92.00
3705;DHT22;1868;48.918;9.438;2024-02-15T14:41:28;20.00;91.80
3705;DHT22;1868;48.918;9.438;2024-02-15T14:43:59;20.00;92.10
3705;DHT22;1868;48.918;9.438;2024-02-15T14:46:28;20.00;92.70
3705;DHT22;1868;48.918;9.438;2024-02-15T14:48:59;20.00;93.00
3705;DHT22;1868;48.918;9.438;2024-02-15T14:51:28;19.90;93.90
3705;DHT22;1868;48.918;9.438;2024-02-15T14:53:58;19.90;93.90
3705;DHT22;1868;48.918;9.438;2024-02-15T14:56:27;19.90;94.00
3705;DHT22;1868;48.918;9.438;2024-02-15T14:59:04;19.90;94.40
3705;DHT22;1868;48.918;9.438;2024-02-15T15:01:33;19.80;95.00
3705;DHT22;1868;48.918;9.438;2024-02-15T15:04:04;19.70;95.20
3705;DHT22;1868;48.918;9.438;2024-02-15T15:06:34;19.60;95.10
3705;DHT22;1868;48.918;9.438;2024-02-15T15:09:33;19.50;95.00
3705;DHT22;1868;48.918;9.438;2024-02-15T15:12:21;19.40;95.40
3705;DHT22;1868;48.918;9.438;2024-02-15T15:15:07;19.30;96.60
3705;DHT22;1868;48.918;9.438;2024-02-15T15:17:39;19.20;96.80
3705;DHT22;1868;48.918;9.438;2024-02-15T15:20:13;19.00;97.30
3705;DHT22;1868;48.918;9.438;2024-02-15T15:22:44;19.00;97.40
3705;DHT22;1868;48.918;9.438;2024-02-15T15:25:13;18.80;97.40
3705;DHT22;1868;48.918;9.438;2024-02-15T15:27:42;18.60;97.40
3705;DHT22;1868;48.918;9.438;2024-02-15T15:30:13;18.60;97.40
3705;DHT22;1868;48.918;9.438;2024-02-15T15:32:43;18.50;97.40
3705;DHT22;1868;48.918;9.438;2024-02-15T15:35:15;18.40;97.40
3705;DHT22;1868;48.918;9.438;2024-02-15T15:37:45;18.40;97.40
3705;DHT22;1868;48.918;9.438;2024-02-15T15:40:20;18.30;97.40
3705;DHT22;1868;48.918;9.438;2024-02-15T15:42:49;18.20;97.40
3705;DHT22;1868;48.918;9.438;2024-02-15T15:45:18;18.20;97.40
3705;DHT22;1868;48.918;9.438;2024-02-15T15:47:48;18.20;97.40
3705;DHT22;1868;48.918;9.438;2024-02-15T15:50:19;18.10;97.40
3705;DHT22;1868;48.918;9.438;2024-02-15T15:52:49;18.10;97.40
3705;DHT22;1868;48.918;9.438;2024-02-15T15:55:21;18.00;97.40
3705;DHT22;1868;48.918;9.438;2024-02-15T15:57:50;17.90;97.40
3705;DHT22;1868;48.918;9.438;2024-02-15T16:00:19;17.80;97.40
3705;DHT22;1868;48.918;9.438;2024-02-15T16:02:49;17.70;97.40
3705;DHT22;1868;48.918;9.438;2024-02-15T16:05:20;17.70;97.40
3705;DHT22;1868;48.918;9.438;2024-02-15T16:07:49;17.60;97.40
3705;DHT22;1868;48.918;9.438;2024-02-15T16:10:20;17.60;97.40
3705;DHT22;1868;48.918;9.438;2024-02-15T16:12:56;17.50;97.40
3705;DHT22;1868;48.918;9.438;2024-02-15T16:15:27;17.40;97.40
3705;DHT22;1868;48.918;9.438;2024-02-15T16:17:57;17.30;97.40
3705;DHT22;1868;48.918;9.438;2024-02-15T16:20:29;17.20;97.40
3705;DHT22;1868;48.918;9.438;2024-02-15T16:22:57;17.10;97.40
3705;DHT22;1868;48.918;9.438;2024-02-15T16:25:26;17.00;97.40
3705;DHT22;1868;48.918;9.438;2024-02-15T16:27:55;16.90;97.40
3705;DHT22;1868;48.918;9.438;2024-02-15T16:30:26;16.80;97.40
3705;DHT22;1868;48.918;9.438;2024-02-15T16:32:55;16.70;97.40
3705;DHT22;1868;48.918;9.438;2024-02-15T16:35:29;16.70;97.40
3705;DHT22;1868;48.918;9.438;2024-02-15T16:38:13;16.60;97.40
3705;DHT22;1868;48.918;9.438;2024-02-15T16:40:43;16.50;97.40
3705;DHT22;1868;48.918;9.438;2024-02-15T16:43:13;16.40;97.40
3705;DHT22;1868;48.918;9.438;2024-02-15T16:45:42;16.30;97.40